createdAt,value
2023-01-11T00:07:48.795Z,101895.00
2023-01-11T00:18:10.292Z,101882.00
2023-01-11T00:28:33.356Z,101865.00
2023-01-11T00:38:55.469Z,101858.00
2023-01-11T00:49:18.632Z,101843.00
2023-01-11T00:59:40.738Z,101817.00
2023-01-11T01:10:03.918Z,101821.00
2023-01-11T01:20:26.270Z,101801.00
2023-01-11T01:30:52.319Z,101802.00
2023-01-11T01:41:14.847Z,101782.00
2023-01-11T01:51:43.258Z,101780.00
2023-01-11T02:02:04.460Z,101751.00
2023-01-11T02:12:30.346Z,101740.00
2023-01-11T02:23:25.814Z,101693.00
2023-01-11T02:33:58.545Z,101682.00
2023-01-11T02:44:44.689Z,101667.00
2023-01-11T02:55:09.268Z,101665.00
2023-01-11T03:05:30.579Z,101649.00
2023-01-11T03:16:15.398Z,101627.00
2023-01-11T03:26:42.882Z,101598.00
2023-01-11T03:37:11.789Z,101594.00
2023-01-11T03:47:34.720Z,101582.00
2023-01-11T03:57:59.137Z,101572.00
2023-01-11T04:08:20.406Z,101575.00
2023-01-11T04:18:43.072Z,101576.00
2023-01-11T04:29:04.494Z,101574.00
2023-01-11T04:39:27.145Z,101560.00
2023-01-11T04:49:48.811Z,101541.00
2023-01-11T05:00:13.193Z,101526.00
2023-01-11T05:10:34.611Z,101508.00
2023-01-11T05:20:57.287Z,101509.00
2023-01-11T05:31:19.100Z,101481.00
2023-01-11T05:41:42.105Z,101469.00
2023-01-11T05:52:03.355Z,101480.00
2023-01-11T06:02:25.949Z,101468.00
2023-01-11T06:13:13.042Z,101461.00
2023-01-11T06:23:38.443Z,101433.00
2023-01-11T06:34:00.737Z,101448.00
2023-01-11T06:44:23.405Z,101434.00
2023-01-11T06:54:44.911Z,101439.00
2023-01-11T07:05:07.924Z,101443.00
2023-01-11T07:15:29.417Z,101463.00
2023-01-11T07:25:52.335Z,101448.00
2023-01-11T07:36:14.026Z,101467.00
2023-01-11T07:46:36.754Z,101471.00
2023-01-11T07:56:58.276Z,101466.00
2023-01-11T08:07:20.942Z,101456.00
2023-01-11T08:17:42.210Z,101442.00
2023-01-11T08:28:07.243Z,101440.00
2023-01-11T08:38:28.633Z,101419.00
2023-01-11T08:48:52.346Z,101430.00
2023-01-11T08:59:14.000Z,101428.00
2023-01-11T09:09:37.741Z,101406.00
2023-01-11T09:19:58.925Z,101391.00
2023-01-11T09:30:23.891Z,101388.00
2023-01-11T09:40:57.122Z,101368.00
2023-01-11T09:51:20.680Z,101367.00
2023-01-11T10:01:46.906Z,101368.00
2023-01-11T10:23:06.297Z,101337.00
2023-01-11T10:33:49.903Z,101327.00
2023-01-11T10:44:19.311Z,101333.00
2023-01-11T10:54:46.886Z,101325.00
2023-01-11T11:05:20.240Z,101316.00
2023-01-11T11:15:54.717Z,101301.00
2023-01-11T11:26:16.322Z,101292.00
2023-01-11T11:36:47.123Z,101280.00
2023-01-11T11:47:16.423Z,101264.00
2023-01-11T11:57:42.800Z,101257.00
2023-01-11T12:08:04.622Z,101254.00
2023-01-11T12:18:31.155Z,101239.00
2023-01-11T12:29:01.387Z,101227.00
2023-01-11T12:39:36.494Z,101222.00
2023-01-11T12:50:03.078Z,101216.00
2023-01-11T13:00:38.494Z,101199.00
2023-01-11T13:11:09.902Z,101196.00
2023-01-11T13:21:36.641Z,101187.00
2023-01-11T13:32:01.186Z,101190.00
2023-01-11T13:42:28.275Z,101204.00
2023-01-11T13:53:03.365Z,101194.00
2023-01-11T14:03:40.960Z,101195.00
2023-01-11T14:14:37.366Z,101198.00
2023-01-11T14:25:04.020Z,101206.00
2023-01-11T14:35:47.687Z,101205.00
2023-01-11T14:46:41.341Z,101218.00
2023-01-11T14:57:04.048Z,101213.00
2023-01-11T15:07:36.465Z,101213.00
2023-01-11T15:18:15.764Z,101225.00
2023-01-11T15:28:48.674Z,101219.00
2023-01-11T15:39:12.397Z,101234.00
2023-01-11T15:50:00.611Z,101241.00
2023-01-11T16:00:48.571Z,101265.00
2023-01-11T16:11:19.892Z,101274.00
2023-01-11T16:21:42.821Z,101289.00
2023-01-11T16:32:07.615Z,101294.00
2023-01-11T16:42:34.429Z,101316.00
2023-01-11T16:52:59.736Z,101325.00
2023-01-11T17:03:25.147Z,101338.00
2023-01-11T17:14:19.145Z,101337.00
2023-01-11T17:24:43.180Z,101344.00
2023-01-11T17:35:08.162Z,101343.00
2023-01-11T17:45:30.298Z,101355.00
2023-01-11T17:55:55.676Z,101372.00
2023-01-11T18:06:24.677Z,101395.00
2023-01-11T18:17:02.124Z,101413.00
2023-01-11T18:27:29.145Z,101417.00
2023-01-11T18:37:52.698Z,101414.00
2023-01-11T18:48:15.451Z,101434.00
2023-01-11T18:58:38.339Z,101441.00
2023-01-11T19:08:59.626Z,101464.00
2023-01-11T19:19:22.318Z,101474.00
2023-01-11T19:29:43.724Z,101482.00
2023-01-11T19:40:09.327Z,101498.00
2023-01-11T19:50:31.033Z,101509.00
2023-01-11T20:00:56.904Z,101532.00
2023-01-11T20:11:20.216Z,101536.00
2023-01-11T20:21:43.315Z,101543.00
2023-01-11T20:32:27.798Z,101541.00
2023-01-11T20:42:56.759Z,101552.00
2023-01-11T20:53:18.244Z,101549.00
2023-01-11T21:03:45.000Z,101554.00
2023-01-11T21:14:11.765Z,101564.00
2023-01-11T21:24:34.762Z,101565.00
2023-01-11T21:34:56.138Z,101564.00
2023-01-11T21:45:19.160Z,101572.00
2023-01-11T21:55:40.763Z,101572.00
2023-01-11T22:06:05.347Z,101564.00
2023-01-11T22:16:27.273Z,101573.00
2023-01-11T22:26:50.922Z,101595.00
2023-01-11T22:37:12.723Z,101589.00
2023-01-11T22:47:36.171Z,101601.00
2023-01-11T22:57:57.743Z,101596.00
2023-01-11T23:08:20.669Z,101583.00
2023-01-11T23:18:42.574Z,101578.00
2023-01-11T23:29:05.905Z,101587.00
2023-01-11T23:39:27.379Z,101587.00
2023-01-11T23:49:51.031Z,101581.00
